»·PEaware :: N729EL KBFL-KMHV

N729EL :: KBFL-KMHV

FLIGHT INFORMATION

Flight Status: Arrived
Operator: Privately registered:
United States
More flights under this callsign
Pilot: Gregg Z. (30023)
Aircraft: CESSNA 172 SKYHAWK
(C172)
More flights by this aircraft type
Origin: KBFL Meadows
United States
Destination: KMHV Mojave
United States
More flights between these airports :: More routes between these airports
Route: KBFL KTSP KMHV
File this flight plan on PilotEdge
Remarks:
Altitude:
(Current/Filed)
7,500ft
Speed:
(Current/Filed)
100kts
Departed: 01-Aug-20 01:18 PM
Arrived: 01-Aug-20 01:57 PM
Distance/Time
Traveled:
50nm/0:39
Distance/Time
To Go:
Arrived

Flight Plot

Page will automatically refresh every two minutes.


Map Options




Map Legend


Flown Route
Filed Route
Departure Airport
Arrival Airport
Navaid (VOR, NDB)
Fix

Horizontal Profiles

Position Reports

Time Latitude Longitude Heading Altitude Ground
Speed
01-Aug-20 13:01 35.429367 -119.046106 226 510ft 0kts
01-Aug-20 13:02 35.429367 -119.046106 226 510ft 0kts
01-Aug-20 13:03 35.429367 -119.046106 226 510ft 0kts
01-Aug-20 13:04 35.429367 -119.046106 226 510ft 0kts
01-Aug-20 13:05 35.429367 -119.046106 226 510ft 0kts
01-Aug-20 13:06 35.429367 -119.046106 226 510ft 0kts
01-Aug-20 13:07 35.429367 -119.046106 226 510ft 0kts
01-Aug-20 13:08 35.429367 -119.046106 226 510ft 0kts
01-Aug-20 13:09 35.429367 -119.046106 226 510ft 0kts
01-Aug-20 13:10 35.429367 -119.046106 226 510ft 0kts
01-Aug-20 13:11 35.429367 -119.046106 226 510ft 0kts
01-Aug-20 13:12 35.429367 -119.046106 226 510ft 0kts
01-Aug-20 13:13 35.429298 -119.046189 223 510ft 5kts
01-Aug-20 13:14 35.425988 -119.044612 174 510ft 13kts
01-Aug-20 13:15 35.425746 -119.044727 219 510ft 0kts
01-Aug-20 13:16 35.425550 -119.045033 243 510ft 12kts
01-Aug-20 13:17 35.436000 -119.060015 303 1069ft 76kts
01-Aug-20 13:18 35.452563 -119.060024 38 2015ft 79kts
01-Aug-20 13:19 35.451539 -119.037661 144 2921ft 81kts
01-Aug-20 13:20 35.432265 -119.023693 147 3801ft 81kts
01-Aug-20 13:21 35.415106 -119.005556 131 4623ft 82kts
01-Aug-20 13:22 35.400932 -118.983458 124 5392ft 83kts
01-Aug-20 13:23 35.388052 -118.959711 122 6117ft 84kts
01-Aug-20 13:24 35.375526 -118.935278 121 6799ft 85kts
01-Aug-20 13:25 35.363251 -118.910266 120 7434ft 87kts
01-Aug-20 13:26 35.348538 -118.879934 120 7470ft 103kts
01-Aug-20 13:27 35.334432 -118.850682 120 7471ft 96kts
01-Aug-20 13:28 35.320945 -118.822696 120 7472ft 94kts
01-Aug-20 13:29 35.307561 -118.794949 120 7472ft 94kts
01-Aug-20 13:30 35.294284 -118.767449 120 7472ft 93kts
01-Aug-20 13:31 35.280986 -118.739930 120 7472ft 93kts
01-Aug-20 13:32 35.267669 -118.712395 120 7472ft 93kts
01-Aug-20 13:33 35.254403 -118.684985 120 7472ft 93kts
01-Aug-20 13:34 35.241078 -118.657478 120 7472ft 93kts
01-Aug-20 13:35 35.227787 -118.630061 120 7472ft 93kts
01-Aug-20 13:36 35.214494 -118.602662 120 7472ft 93kts
01-Aug-20 13:38 35.201131 -118.575141 120 7472ft 93kts
01-Aug-20 13:39 35.187795 -118.547695 120 7472ft 94kts
01-Aug-20 13:40 35.174430 -118.520213 120 7472ft 94kts
01-Aug-20 13:41 35.161104 -118.492834 120 7472ft 94kts
01-Aug-20 13:42 35.147725 -118.465368 120 7472ft 94kts
01-Aug-20 13:43 35.134976 -118.437525 110 7472ft 94kts
01-Aug-20 13:44 35.126656 -118.407283 107 7472ft 94kts
01-Aug-20 13:45 35.118647 -118.376888 107 7472ft 94kts
01-Aug-20 13:46 35.110715 -118.346711 108 7472ft 94kts
01-Aug-20 13:47 35.102077 -118.313946 108 7183ft 114kts
01-Aug-20 13:48 35.092265 -118.276810 108 6318ft 123kts
01-Aug-20 13:49 35.081211 -118.234926 108 4922ft 135kts
01-Aug-20 13:50 35.073141 -118.192002 86 3559ft 115kts
01-Aug-20 13:51 35.064209 -118.170540 170 3820ft 85kts
01-Aug-20 13:52 35.043288 -118.157103 137 3919ft 92kts
01-Aug-20 13:53 35.025856 -118.135269 133 3968ft 84kts
01-Aug-20 13:53 35.016100 -118.116056 62 3809ft 88kts
01-Aug-20 13:55 35.036916 -118.121477 314 3101ft 76kts
01-Aug-20 13:56 35.049530 -118.136749 315 2800ft 53kts
01-Aug-20 13:56 35.056465 -118.145046 315 2795ft 37kts
01-Aug-20 13:57 35.057584 -118.147876 268 2795ft 0kts
01-Aug-20 13:59 35.057152 -118.151808 73 2795ft 0kts
01-Aug-20 14:00 35.057152 -118.151808 73 2795ft 0kts
01-Aug-20 14:00 35.057152 -118.151808 73 2795ft 0kts

Navigation Log

Ident Type
Flight plan parsing failed, navigation log unavailable